createdAt,value
2022-08-23T00:02:34.499Z,31.23
2022-08-23T00:07:42.246Z,30.52
2022-08-23T00:12:45.472Z,30.70
2022-08-23T00:22:49.898Z,32.38
2022-08-23T00:27:52.072Z,31.58
2022-08-23T00:32:57.006Z,34.47
2022-08-23T00:38:32.903Z,30.33
2022-08-23T00:43:54.730Z,29.20
2022-08-23T00:48:57.936Z,35.42
2022-08-23T00:54:03.649Z,40.35
2022-08-23T00:59:07.177Z,32.53
2022-08-23T01:04:11.467Z,26.70
2022-08-23T01:09:17.896Z,20.85
2022-08-23T01:14:27.034Z,25.00
2022-08-23T01:19:33.338Z,19.67
2022-08-23T01:25:06.398Z,16.00
2022-08-23T01:29:58.716Z,23.35
2022-08-23T01:35:00.680Z,20.35
2022-08-23T01:40:03.033Z,16.25
2022-08-23T01:45:05.866Z,18.67
2022-08-23T01:50:10.386Z,17.30
2022-08-23T01:55:12.725Z,11.27
2022-08-23T02:00:15.218Z,14.57
2022-08-23T02:05:19.259Z,17.47
2022-08-23T02:10:23.084Z,14.20
2022-08-23T02:15:26.414Z,15.68
2022-08-23T02:20:28.801Z,21.60
2022-08-23T02:25:31.037Z,17.60
2022-08-23T02:30:33.725Z,19.30
2022-08-23T02:35:36.489Z,16.90
2022-08-23T02:40:39.891Z,21.08
2022-08-23T02:45:41.979Z,23.85
2022-08-23T02:50:44.043Z,26.33
2022-08-23T02:55:47.585Z,27.25
2022-08-23T03:00:50.562Z,24.80
2022-08-23T03:05:54.553Z,30.73
2022-08-23T03:10:58.541Z,25.52
2022-08-23T03:16:01.561Z,28.15
2022-08-23T03:21:04.862Z,25.30
2022-08-23T03:26:10.264Z,23.25
2022-08-23T03:31:14.140Z,31.40
2022-08-23T03:36:28.209Z,33.15
2022-08-23T03:41:32.251Z,26.70
2022-08-23T03:46:34.676Z,23.02
2022-08-23T03:51:38.189Z,29.70
2022-08-23T03:56:51.132Z,23.90
2022-08-23T04:07:19.265Z,24.70
2022-08-23T04:12:22.893Z,29.05
2022-08-23T04:17:25.302Z,23.58
2022-08-23T04:22:28.047Z,24.13
2022-08-23T04:27:30.462Z,24.90
2022-08-23T04:32:32.718Z,25.10
2022-08-23T04:37:37.395Z,24.02
2022-08-23T04:42:40.820Z,23.85
2022-08-23T04:47:44.807Z,22.48
2022-08-23T04:52:46.945Z,19.42
2022-08-23T04:57:49.033Z,27.05
2022-08-23T05:02:55.548Z,20.90
2022-08-23T05:07:57.926Z,20.05
2022-08-23T05:12:59.938Z,13.18
2022-08-23T05:18:02.084Z,16.65
2022-08-23T05:23:05.416Z,16.33
2022-08-23T05:28:10.022Z,15.80
2022-08-23T05:33:13.667Z,15.02
2022-08-23T05:38:20.157Z,18.27
2022-08-23T05:43:23.756Z,14.00
2022-08-23T05:48:26.311Z,16.00
2022-08-23T05:53:33.114Z,15.90
2022-08-23T05:58:35.361Z,12.40
2022-08-23T06:03:37.754Z,14.05
2022-08-23T06:08:40.547Z,11.03
2022-08-23T06:18:47.134Z,11.45
2022-08-23T06:24:22.337Z,14.35
2022-08-23T06:29:48.769Z,12.32
2022-08-23T06:35:27.834Z,14.45
2022-08-23T06:40:32.199Z,17.38
2022-08-23T06:45:58.226Z,13.33
2022-08-23T06:51:00.606Z,18.45
2022-08-23T06:56:26.796Z,14.07
2022-08-23T07:01:55.353Z,13.75
2022-08-23T07:07:19.316Z,16.83
2022-08-23T07:12:22.280Z,13.05
2022-08-23T07:22:27.856Z,16.08
2022-08-23T07:27:29.997Z,11.68
2022-08-23T07:32:36.632Z,13.70
2022-08-23T07:37:50.906Z,16.45
2022-08-23T07:42:53.793Z,15.13
2022-08-23T07:47:56.216Z,15.68
2022-08-23T07:53:03.052Z,13.80
2022-08-23T07:58:05.697Z,17.30
2022-08-23T08:03:17.279Z,18.98
2022-08-23T08:08:41.165Z,12.75
2022-08-23T08:13:45.224Z,12.82
2022-08-23T08:18:47.478Z,24.65
2022-08-23T08:24:12.746Z,15.63
2022-08-23T08:29:28.251Z,20.48
2022-08-23T08:34:30.286Z,16.17
2022-08-23T08:39:33.734Z,17.77
2022-08-23T08:44:46.120Z,17.77
2022-08-23T08:49:58.222Z,17.90
2022-08-23T08:55:15.293Z,22.85
2022-08-23T09:00:23.592Z,17.13
2022-08-23T09:05:36.889Z,20.75
2022-08-23T09:11:14.120Z,16.10
2022-08-23T09:16:43.490Z,23.35
2022-08-23T09:21:47.490Z,20.10
2022-08-23T09:26:49.785Z,22.23
2022-08-23T09:31:55.822Z,29.17
2022-08-23T09:37:16.878Z,29.95
2022-08-23T09:42:40.238Z,28.05
2022-08-23T09:47:47.708Z,28.42
2022-08-23T09:53:04.338Z,30.67
2022-08-23T09:58:19.489Z,41.83
2022-08-23T10:03:25.420Z,35.25
2022-08-23T10:08:36.619Z,39.30
2022-08-23T10:13:43.121Z,30.73
2022-08-23T10:19:07.494Z,37.53
2022-08-23T10:24:40.400Z,40.15
2022-08-23T10:29:48.571Z,35.63
2022-08-23T10:35:32.596Z,42.40
2022-08-23T10:40:44.455Z,39.83
2022-08-23T10:45:47.270Z,41.30
2022-08-23T10:51:14.105Z,43.00
2022-08-23T10:56:20.908Z,51.97
2022-08-23T11:01:53.597Z,38.78
2022-08-23T11:06:58.785Z,47.40
2022-08-23T11:12:21.417Z,41.88
2022-08-23T11:17:29.123Z,47.83
2022-08-23T11:22:52.841Z,38.85
2022-08-23T11:28:24.075Z,37.95
2022-08-23T11:33:49.084Z,41.80
2022-08-23T11:38:51.117Z,42.45
2022-08-23T11:43:57.014Z,48.17
2022-08-23T11:49:17.169Z,54.40
2022-08-23T11:54:39.330Z,50.65
2022-08-23T11:59:58.248Z,54.33
2022-08-23T12:05:06.942Z,67.18
2022-08-23T12:10:10.305Z,64.07
2022-08-23T12:15:13.428Z,61.47
2022-08-23T12:20:28.810Z,52.42
2022-08-23T12:25:32.113Z,58.22
2022-08-23T12:31:23.925Z,67.60
2022-08-23T12:36:39.210Z,65.50
2022-08-23T12:41:54.009Z,68.70
2022-08-23T12:46:56.462Z,64.82
2022-08-23T12:52:01.881Z,74.75
2022-08-23T12:57:11.660Z,89.20
2022-08-23T13:02:40.579Z,77.93
2022-08-23T13:07:42.989Z,65.90
2022-08-23T13:17:47.065Z,77.63
2022-08-23T13:23:18.105Z,74.45
2022-08-23T13:28:31.216Z,97.63
2022-08-23T13:33:33.362Z,79.95
2022-08-23T13:38:35.474Z,75.07
2022-08-23T13:43:43.341Z,86.00
2022-08-23T13:48:49.524Z,92.57
2022-08-23T13:53:52.489Z,83.85
2022-08-23T13:58:57.298Z,94.97
2022-08-23T14:03:59.293Z,89.93
2022-08-23T14:09:01.378Z,104.85
2022-08-23T14:14:04.153Z,85.13
2022-08-23T14:19:18.009Z,104.55
2022-08-23T14:24:30.796Z,103.43
2022-08-23T14:29:32.802Z,93.57
2022-08-23T14:34:34.795Z,104.53
2022-08-23T14:39:36.826Z,87.80
2022-08-23T14:44:38.945Z,107.55
2022-08-23T14:49:41.348Z,110.03
2022-08-23T14:54:43.622Z,92.95
2022-08-23T15:04:47.999Z,110.60
2022-08-23T15:09:51.721Z,114.78
2022-08-23T15:14:56.860Z,117.38
2022-08-23T15:19:59.437Z,102.20
2022-08-23T15:30:04.432Z,102.63
2022-08-23T15:35:07.188Z,100.60
2022-08-23T15:40:11.184Z,98.03
2022-08-23T15:45:13.233Z,92.13
2022-08-23T15:50:17.589Z,126.70
2022-08-23T15:55:20.485Z,97.32
2022-08-23T16:00:23.164Z,102.03
2022-08-23T16:05:25.258Z,115.07
2022-08-23T16:10:28.195Z,117.43
2022-08-23T16:15:30.534Z,88.70
2022-08-23T16:20:32.506Z,105.22
2022-08-23T16:25:35.028Z,100.88
2022-08-23T16:30:37.274Z,104.35
2022-08-23T16:35:39.342Z,110.05
2022-08-23T16:40:41.337Z,100.13
2022-08-23T16:45:43.605Z,94.82
2022-08-23T16:50:47.001Z,68.03
2022-08-23T16:55:49.013Z,53.83
2022-08-23T17:00:50.996Z,36.83
2022-08-23T17:05:53.038Z,27.90
2022-08-23T17:10:55.028Z,24.20
2022-08-23T17:15:57.125Z,28.83
2022-08-23T17:20:59.265Z,20.70
2022-08-23T17:26:01.505Z,20.40
2022-08-23T17:31:03.620Z,24.23
2022-08-23T17:36:07.363Z,20.40
2022-08-23T17:41:09.437Z,20.80
2022-08-23T17:46:11.433Z,16.13
2022-08-23T17:51:13.617Z,19.57
2022-08-23T17:56:15.560Z,18.80
2022-08-23T18:01:17.999Z,16.65
2022-08-23T18:06:20.123Z,23.50
2022-08-23T18:11:22.888Z,17.03
2022-08-23T18:16:34.446Z,16.63
2022-08-23T18:21:38.988Z,25.95
2022-08-23T18:27:00.306Z,21.48
2022-08-23T18:32:04.213Z,24.42
2022-08-23T18:37:07.461Z,16.98
2022-08-23T18:42:10.617Z,19.20
2022-08-23T18:47:13.671Z,20.35
2022-08-23T18:52:15.727Z,19.27
2022-08-23T18:57:17.702Z,22.37
2022-08-23T19:02:20.300Z,18.83
2022-08-23T19:07:23.147Z,23.85
2022-08-23T19:12:25.310Z,20.27
2022-08-23T19:17:27.790Z,14.75
2022-08-23T19:22:30.060Z,35.63
2022-08-23T19:27:34.279Z,19.33
2022-08-23T19:32:39.454Z,22.92
2022-08-23T19:37:43.791Z,16.00
2022-08-23T19:42:46.204Z,18.10
2022-08-23T19:47:48.526Z,17.80
2022-08-23T19:52:50.835Z,19.48
2022-08-23T19:57:56.592Z,20.47
2022-08-23T20:02:58.777Z,14.90
2022-08-23T20:08:01.392Z,18.53
2022-08-23T20:13:04.042Z,25.13
2022-08-23T20:18:06.646Z,24.42
2022-08-23T20:23:27.120Z,19.48
2022-08-23T20:28:29.515Z,14.50
2022-08-23T20:33:32.832Z,19.87
2022-08-23T20:38:36.318Z,14.38
2022-08-23T20:43:41.027Z,19.40
2022-08-23T20:48:43.177Z,14.60
2022-08-23T20:53:45.508Z,17.93
2022-08-23T20:58:47.660Z,32.67
2022-08-23T21:03:50.036Z,39.57
2022-08-23T21:08:53.960Z,17.03
2022-08-23T21:13:56.990Z,27.70
2022-08-23T21:18:59.257Z,21.17
2022-08-23T21:24:03.350Z,20.80
2022-08-23T21:29:07.601Z,19.17
2022-08-23T21:34:09.852Z,17.58
2022-08-23T21:39:11.897Z,19.17
2022-08-23T21:44:18.875Z,18.42
2022-08-23T21:49:21.088Z,15.20
2022-08-23T21:54:26.194Z,16.57
2022-08-23T21:59:28.460Z,18.20
2022-08-23T22:04:30.546Z,20.63
2022-08-23T22:09:33.499Z,24.02
2022-08-23T22:14:35.958Z,18.80
2022-08-23T22:19:37.972Z,18.47
2022-08-23T22:24:41.821Z,15.77
2022-08-23T22:29:46.494Z,15.35
2022-08-23T22:34:49.139Z,17.80
2022-08-23T22:39:51.406Z,19.73
2022-08-23T22:44:55.856Z,17.27
2022-08-23T22:49:58.088Z,19.98
2022-08-23T22:55:00.100Z,19.10
2022-08-23T23:00:02.993Z,18.02
2022-08-23T23:05:06.020Z,19.20
2022-08-23T23:10:08.577Z,22.10
2022-08-23T23:15:10.981Z,16.70
2022-08-23T23:20:31.581Z,24.77
2022-08-23T23:25:34.557Z,17.05
2022-08-23T23:30:37.157Z,22.38
2022-08-23T23:35:39.792Z,20.50
2022-08-23T23:40:42.259Z,13.47
2022-08-23T23:45:44.569Z,21.03
2022-08-23T23:50:46.793Z,20.03
2022-08-23T23:55:49.161Z,17.40
